createdAt,value
2023-04-21T00:01:49.662Z,83.30
2023-04-21T00:04:17.354Z,96.83
2023-04-21T00:06:44.948Z,91.23
2023-04-21T00:09:12.449Z,80.53
2023-04-21T00:11:39.960Z,93.90
2023-04-21T00:14:07.444Z,73.67
2023-04-21T00:16:35.091Z,91.37
2023-04-21T00:19:02.639Z,83.60
2023-04-21T00:21:30.155Z,92.17
2023-04-21T00:23:57.649Z,85.57
2023-04-21T00:26:25.181Z,82.53
2023-04-21T00:28:52.681Z,80.77
2023-04-21T00:31:20.188Z,81.17
2023-04-21T00:33:47.772Z,88.27
2023-04-21T00:36:15.309Z,81.87
2023-04-21T00:38:42.841Z,87.10
2023-04-21T00:41:10.374Z,71.53
2023-04-21T00:43:37.870Z,89.67
2023-04-21T00:46:05.489Z,93.50
2023-04-21T00:48:33.004Z,80.57
2023-04-21T00:51:00.555Z,87.87
2023-04-21T00:53:28.039Z,75.67
2023-04-21T00:55:55.586Z,67.10
2023-04-21T00:58:23.097Z,70.30
2023-04-21T01:00:50.709Z,61.30
2023-04-21T01:03:18.384Z,86.73
2023-04-21T01:05:46.018Z,72.87
2023-04-21T01:08:13.519Z,91.70
2023-04-21T01:10:41.077Z,67.03
2023-04-21T01:13:08.642Z,64.63
2023-04-21T01:15:36.244Z,89.27
2023-04-21T01:18:03.880Z,58.13
2023-04-21T01:20:31.536Z,90.47
2023-04-21T01:22:59.081Z,57.70
2023-04-21T01:25:26.635Z,77.83
2023-04-21T01:27:54.193Z,58.87
2023-04-21T01:30:21.831Z,63.63
2023-04-21T01:32:49.447Z,81.80
2023-04-21T01:35:17.115Z,90.97
2023-04-21T01:37:44.608Z,85.07
2023-04-21T01:40:12.315Z,60.50
2023-04-21T01:42:41.346Z,100.83
2023-04-21T01:45:09.083Z,64.07
2023-04-21T01:47:36.628Z,71.40
2023-04-21T01:50:04.264Z,51.40
2023-04-21T01:52:31.787Z,58.17
2023-04-21T01:54:59.471Z,62.73
2023-04-21T01:57:26.952Z,45.40
2023-04-21T01:59:54.525Z,63.90
2023-04-21T02:02:22.206Z,91.07
2023-04-21T02:04:49.979Z,84.27
2023-04-21T02:07:17.480Z,66.53
2023-04-21T02:09:45.127Z,80.20
2023-04-21T02:12:12.703Z,77.10
2023-04-21T02:14:40.350Z,62.80
2023-04-21T02:17:07.847Z,98.53
2023-04-21T02:19:35.422Z,93.47
2023-04-21T02:22:02.920Z,93.50
2023-04-21T02:24:30.488Z,73.57
2023-04-21T02:26:57.979Z,89.80
2023-04-21T02:29:25.585Z,104.03
2023-04-21T02:32:03.058Z,77.73
2023-04-21T02:34:38.132Z,70.47
2023-04-21T02:37:05.651Z,103.80
2023-04-21T02:39:33.164Z,71.10
2023-04-21T02:42:00.682Z,87.23
2023-04-21T02:44:28.229Z,84.53
2023-04-21T02:46:55.829Z,85.97
2023-04-21T02:49:23.468Z,79.47
2023-04-21T02:51:50.978Z,57.77
2023-04-21T02:54:18.509Z,80.13
2023-04-21T02:56:45.987Z,87.93
2023-04-21T02:59:13.587Z,81.50
2023-04-21T03:01:41.071Z,91.70
2023-04-21T03:04:08.805Z,98.47
2023-04-21T03:06:36.387Z,71.20
2023-04-21T03:09:04.031Z,92.87
2023-04-21T03:11:31.541Z,84.30
2023-04-21T03:13:59.063Z,98.57
2023-04-21T03:16:26.585Z,94.10
2023-04-21T03:18:54.177Z,91.93
2023-04-21T03:21:21.777Z,73.57
2023-04-21T03:23:49.327Z,82.37
2023-04-21T03:26:16.845Z,100.80
2023-04-21T03:28:44.539Z,100.80
2023-04-21T03:31:12.040Z,97.00
2023-04-21T03:33:39.615Z,98.57
2023-04-21T03:36:07.329Z,95.53
2023-04-21T03:38:34.927Z,92.80
2023-04-21T03:41:04.207Z,110.47
2023-04-21T03:43:31.769Z,92.97
2023-04-21T03:45:59.315Z,109.83
2023-04-21T03:48:28.358Z,108.63
2023-04-21T03:50:55.863Z,101.27
2023-04-21T03:53:23.412Z,120.00
2023-04-21T03:55:51.269Z,99.37
2023-04-21T03:58:18.776Z,98.27
2023-04-21T04:00:46.393Z,94.97
2023-04-21T04:03:14.057Z,94.10
2023-04-21T04:05:41.792Z,101.60
2023-04-21T04:08:09.507Z,109.73
2023-04-21T04:10:37.043Z,110.33
2023-04-21T04:13:04.586Z,128.43
2023-04-21T04:15:32.112Z,109.70
2023-04-21T04:17:59.658Z,95.07
2023-04-21T04:20:27.258Z,110.33
2023-04-21T04:22:54.778Z,109.90
2023-04-21T04:25:22.379Z,109.17
2023-04-21T04:27:53.287Z,99.23
2023-04-21T04:30:22.566Z,103.37
2023-04-21T04:32:50.582Z,96.03
2023-04-21T04:35:18.081Z,94.47
2023-04-21T04:37:45.616Z,106.20
2023-04-21T04:40:13.183Z,108.87
2023-04-21T04:42:40.647Z,120.27
2023-04-21T04:45:11.135Z,132.77
2023-04-21T04:47:38.769Z,94.07
2023-04-21T04:50:06.957Z,100.53
2023-04-21T04:52:34.530Z,97.47
2023-04-21T04:55:02.054Z,114.60
2023-04-21T04:57:29.535Z,104.13
2023-04-21T04:59:57.326Z,109.10
2023-04-21T05:02:25.056Z,101.77
2023-04-21T05:04:52.933Z,101.73
2023-04-21T05:07:20.534Z,97.50
2023-04-21T05:09:48.048Z,110.13
2023-04-21T05:12:15.505Z,108.67
2023-04-21T05:14:43.011Z,104.83
2023-04-21T05:17:10.534Z,101.97
2023-04-21T05:19:38.133Z,89.37
2023-04-21T05:22:05.702Z,89.20
2023-04-21T05:24:36.311Z,72.10
2023-04-21T05:27:04.579Z,63.07
2023-04-21T05:29:32.114Z,56.53
2023-04-21T05:31:59.700Z,60.03
2023-04-21T05:34:27.164Z,52.33
2023-04-21T05:36:54.660Z,55.20
2023-04-21T05:39:22.173Z,61.63
2023-04-21T05:41:49.724Z,62.93
2023-04-21T05:44:18.045Z,57.33
2023-04-21T05:46:45.758Z,61.03
2023-04-21T05:49:13.389Z,61.43
2023-04-21T05:51:40.955Z,65.17
2023-04-21T05:54:08.444Z,64.47
2023-04-21T05:56:36.029Z,61.13
2023-04-21T05:59:03.532Z,69.63
2023-04-21T06:01:31.035Z,71.00
2023-04-21T06:03:58.713Z,64.33
2023-04-21T06:06:26.722Z,58.70
2023-04-21T06:08:54.217Z,60.37
2023-04-21T06:11:21.744Z,56.20
2023-04-21T06:13:49.229Z,59.53
2023-04-21T06:16:16.853Z,61.80
2023-04-21T06:18:44.409Z,61.03
2023-04-21T06:21:11.967Z,61.57
2023-04-21T06:23:39.465Z,60.33
2023-04-21T06:26:07.822Z,58.73
2023-04-21T06:28:36.063Z,59.43
2023-04-21T06:31:07.083Z,60.23
2023-04-21T06:33:36.521Z,55.37
2023-04-21T06:36:04.131Z,59.30
2023-04-21T06:38:31.670Z,60.00
2023-04-21T06:40:59.319Z,66.77
2023-04-21T06:43:26.860Z,55.90
2023-04-21T06:45:54.388Z,61.70
2023-04-21T06:48:22.005Z,55.93
2023-04-21T06:50:49.503Z,59.53
2023-04-21T06:53:17.053Z,59.73
2023-04-21T06:55:44.578Z,57.87
2023-04-21T06:58:12.133Z,49.90
2023-04-21T07:00:39.706Z,47.07
2023-04-21T07:03:07.443Z,45.93
2023-04-21T07:05:35.014Z,55.63
2023-04-21T07:08:02.644Z,42.77
2023-04-21T07:10:30.191Z,49.97
2023-04-21T07:12:57.743Z,45.13
2023-04-21T07:15:25.295Z,47.63
2023-04-21T07:17:53.009Z,46.23
2023-04-21T07:20:20.578Z,47.57
2023-04-21T07:22:50.075Z,47.07
2023-04-21T07:25:17.636Z,54.47
2023-04-21T07:27:45.153Z,43.23
2023-04-21T07:30:12.968Z,44.83
2023-04-21T07:32:40.601Z,44.63
2023-04-21T07:35:08.344Z,46.70
2023-04-21T07:37:35.852Z,42.63
2023-04-21T07:40:03.419Z,41.83
2023-04-21T07:42:30.952Z,41.77
2023-04-21T07:44:58.550Z,43.80
2023-04-21T07:47:26.119Z,39.03
2023-04-21T07:49:53.705Z,40.63
2023-04-21T07:52:21.188Z,46.93
2023-04-21T07:54:48.744Z,48.80
2023-04-21T07:57:16.226Z,42.77
2023-04-21T07:59:43.862Z,42.97
2023-04-21T08:02:11.424Z,41.87
2023-04-21T08:04:39.610Z,41.90
2023-04-21T08:07:07.480Z,46.63
2023-04-21T08:09:35.397Z,43.03
2023-04-21T08:12:02.943Z,41.87
2023-04-21T08:14:30.530Z,41.00
2023-04-21T08:16:58.241Z,41.87
2023-04-21T08:19:26.145Z,38.50
2023-04-21T08:21:53.818Z,42.03
2023-04-21T08:24:21.559Z,36.87
2023-04-21T08:26:49.253Z,35.67
2023-04-21T08:29:16.815Z,37.00
2023-04-21T08:31:44.463Z,32.83
2023-04-21T08:34:12.090Z,31.73
2023-04-21T08:36:39.659Z,32.83
2023-04-21T08:39:07.273Z,31.97
2023-04-21T08:41:35.296Z,32.60
2023-04-21T08:44:04.169Z,32.40
2023-04-21T08:46:33.055Z,32.53
2023-04-21T08:49:01.558Z,34.03
2023-04-21T08:51:29.442Z,32.60
2023-04-21T08:53:57.057Z,31.47
2023-04-21T08:56:25.261Z,33.27
2023-04-21T08:58:52.952Z,36.70
2023-04-21T09:01:20.610Z,33.87
2023-04-21T09:03:48.364Z,33.73
2023-04-21T09:06:16.631Z,32.97
2023-04-21T09:08:45.527Z,28.93
2023-04-21T09:11:16.174Z,32.43
2023-04-21T09:13:44.041Z,32.17
2023-04-21T09:16:19.686Z,28.73
2023-04-21T09:18:47.286Z,28.37
2023-04-21T09:21:16.315Z,29.23
2023-04-21T09:23:53.510Z,28.37
2023-04-21T09:26:21.628Z,26.07
2023-04-21T09:28:50.057Z,27.30
2023-04-21T09:31:18.952Z,28.70
2023-04-21T09:34:09.411Z,27.60
2023-04-21T09:36:36.955Z,25.60
2023-04-21T09:41:35.446Z,25.50
2023-04-21T09:44:02.976Z,27.17
2023-04-21T09:46:32.984Z,23.50
2023-04-21T09:49:04.132Z,21.10
2023-04-21T09:51:56.206Z,24.37
2023-04-21T09:56:53.642Z,24.73
2023-04-21T09:59:25.649Z,24.80
2023-04-21T10:01:54.565Z,24.13
2023-04-21T10:04:22.832Z,23.43
2023-04-21T10:06:51.885Z,27.93
2023-04-21T10:09:21.938Z,25.20
2023-04-21T10:11:49.672Z,26.27
2023-04-21T10:14:17.477Z,24.07
2023-04-21T10:16:56.299Z,26.33
2023-04-21T10:19:25.026Z,23.90
2023-04-21T10:21:52.603Z,23.93
2023-04-21T10:24:20.291Z,28.63
2023-04-21T10:26:52.484Z,24.37
2023-04-21T10:29:43.662Z,28.27
2023-04-21T10:32:31.629Z,24.80
2023-04-21T10:34:59.210Z,21.80
2023-04-21T10:37:26.712Z,27.67
2023-04-21T10:39:55.342Z,25.13
2023-04-21T10:42:26.883Z,24.67
2023-04-21T10:44:57.337Z,24.33
2023-04-21T10:47:30.622Z,24.13
2023-04-21T10:49:59.087Z,21.53
2023-04-21T10:52:33.449Z,25.27
2023-04-21T10:55:07.975Z,18.43
2023-04-21T10:57:37.833Z,25.57
2023-04-21T11:00:06.060Z,22.97
2023-04-21T11:02:36.514Z,22.10
2023-04-21T11:05:06.278Z,22.70
2023-04-21T11:07:33.820Z,22.33
2023-04-21T11:10:02.687Z,23.53
2023-04-21T11:12:34.303Z,21.07
2023-04-21T11:15:04.297Z,23.93
2023-04-21T11:17:32.315Z,19.83
2023-04-21T11:19:59.885Z,22.10
2023-04-21T11:22:27.599Z,24.60
2023-04-21T11:24:55.951Z,21.27
2023-04-21T11:27:23.728Z,18.97
2023-04-21T11:29:51.697Z,21.80
2023-04-21T11:32:19.322Z,24.03
2023-04-21T11:34:46.857Z,21.60
2023-04-21T11:37:25.468Z,18.97
2023-04-21T11:39:59.870Z,25.27
2023-04-21T11:42:27.773Z,22.30
2023-04-21T11:44:55.974Z,22.20
2023-04-21T11:47:24.360Z,19.50
2023-04-21T11:49:53.407Z,20.60
2023-04-21T11:52:39.252Z,19.63
2023-04-21T11:55:07.786Z,23.10
2023-04-21T11:57:35.329Z,22.43
2023-04-21T12:00:04.476Z,19.90
2023-04-21T12:02:32.930Z,24.83
2023-04-21T12:05:07.952Z,23.20
2023-04-21T12:07:36.699Z,18.00
2023-04-21T12:10:11.774Z,21.07
2023-04-21T12:12:39.942Z,22.37
2023-04-21T12:15:08.054Z,20.87
2023-04-21T12:17:45.259Z,20.63
2023-04-21T12:20:13.543Z,22.17
2023-04-21T12:22:41.135Z,20.97
2023-04-21T12:25:08.823Z,23.83
2023-04-21T12:27:36.432Z,21.23
2023-04-21T12:30:04.333Z,21.23
2023-04-21T12:32:31.927Z,17.47
2023-04-21T12:34:59.474Z,19.57
2023-04-21T12:37:27.035Z,23.37
2023-04-21T12:39:54.604Z,22.33
2023-04-21T12:42:22.152Z,21.67
2023-04-21T12:44:49.742Z,16.93
2023-04-21T12:47:17.410Z,21.23
2023-04-21T12:49:44.990Z,14.53
2023-04-21T12:52:12.518Z,15.10
2023-04-21T12:54:40.060Z,18.63
2023-04-21T12:57:07.632Z,17.10
2023-04-21T12:59:35.209Z,15.80
2023-04-21T13:02:02.844Z,16.83
2023-04-21T13:04:30.598Z,18.37
2023-04-21T13:06:58.350Z,18.37
2023-04-21T13:09:25.901Z,16.43
2023-04-21T13:11:53.399Z,19.67
2023-04-21T13:14:20.973Z,17.90
2023-04-21T13:16:48.614Z,17.83
2023-04-21T13:19:16.199Z,18.17
2023-04-21T13:21:43.744Z,18.27
2023-04-21T13:24:14.344Z,13.60
2023-04-21T13:26:42.304Z,11.77
2023-04-21T13:29:09.831Z,11.60
2023-04-21T13:31:37.562Z,13.07
2023-04-21T13:34:05.252Z,11.83
2023-04-21T13:36:32.811Z,9.97
2023-04-21T13:39:00.374Z,10.70
2023-04-21T13:41:27.948Z,12.77
2023-04-21T13:43:55.516Z,11.87
2023-04-21T13:46:23.290Z,11.77
2023-04-21T13:48:50.862Z,12.07
2023-04-21T13:51:19.245Z,12.73
2023-04-21T13:53:46.920Z,11.60
2023-04-21T13:56:14.479Z,12.43
2023-04-21T13:58:42.316Z,14.33
2023-04-21T14:01:09.955Z,10.83
2023-04-21T14:03:37.730Z,10.27
2023-04-21T14:06:05.610Z,11.17
2023-04-21T14:08:33.261Z,11.47
2023-04-21T14:11:01.084Z,11.67
2023-04-21T14:16:01.120Z,8.93
2023-04-21T14:18:28.670Z,10.27
2023-04-21T14:20:56.198Z,9.03
2023-04-21T14:23:23.778Z,8.90
2023-04-21T14:25:53.018Z,8.70
2023-04-21T14:28:21.985Z,9.40
2023-04-21T14:30:49.476Z,8.87
2023-04-21T14:33:17.072Z,9.40
2023-04-21T14:35:44.734Z,9.17
2023-04-21T14:38:12.440Z,6.80
2023-04-21T14:40:39.957Z,8.03
2023-04-21T14:43:07.611Z,7.67
2023-04-21T14:45:35.338Z,7.77
2023-04-21T14:48:03.125Z,6.50
2023-04-21T14:50:30.714Z,8.13
2023-04-21T14:52:58.266Z,7.97
2023-04-21T14:55:25.784Z,8.27
2023-04-21T14:57:53.384Z,7.90
2023-04-21T15:00:21.071Z,8.30
2023-04-21T15:02:48.723Z,7.73
2023-04-21T15:05:16.363Z,10.20
2023-04-21T15:07:44.023Z,7.00
2023-04-21T15:10:11.793Z,6.60
2023-04-21T15:12:39.433Z,7.43
2023-04-21T15:15:07.275Z,5.43
2023-04-21T15:17:34.852Z,7.53
2023-04-21T15:20:02.448Z,10.20
2023-04-21T15:22:30.095Z,8.57
2023-04-21T15:24:57.842Z,7.00
2023-04-21T15:27:25.402Z,6.57
2023-04-21T15:29:52.983Z,5.83
2023-04-21T15:32:20.754Z,5.80
2023-04-21T15:34:48.299Z,8.80
2023-04-21T15:37:15.864Z,4.87
2023-04-21T15:39:43.512Z,5.67
2023-04-21T15:42:11.144Z,6.20
2023-04-21T15:44:38.712Z,6.83
2023-04-21T15:47:06.673Z,5.40
2023-04-21T15:49:34.501Z,6.20
2023-04-21T15:52:02.936Z,5.43
2023-04-21T15:54:30.519Z,6.00
2023-04-21T15:56:58.162Z,4.53
2023-04-21T15:59:26.347Z,7.93
2023-04-21T16:01:54.207Z,5.53
2023-04-21T16:04:21.962Z,4.77
2023-04-21T16:06:49.993Z,4.90
2023-04-21T16:09:17.673Z,5.00
2023-04-21T16:11:45.523Z,4.93
2023-04-21T16:14:13.272Z,5.50
2023-04-21T16:16:40.908Z,5.27
2023-04-21T16:19:08.436Z,5.53
2023-04-21T16:21:36.963Z,6.60
2023-04-21T16:24:07.371Z,6.33
2023-04-21T16:26:36.199Z,5.47
2023-04-21T16:29:05.101Z,7.57
2023-04-21T16:31:32.801Z,6.43
2023-04-21T16:34:00.537Z,8.00
2023-04-21T16:36:28.490Z,2.10
2023-04-21T16:38:56.450Z,5.40
2023-04-21T16:41:24.249Z,6.20
2023-04-21T16:43:52.405Z,11.53
2023-04-21T16:46:20.106Z,14.27
2023-04-21T16:48:47.776Z,12.70
2023-04-21T16:51:15.463Z,13.77
2023-04-21T16:53:43.063Z,14.67
2023-04-21T16:56:10.689Z,4.93
2023-04-21T16:58:38.244Z,6.07
2023-04-21T17:01:05.925Z,7.30
2023-04-21T17:03:33.809Z,7.90
2023-04-21T17:06:01.569Z,9.17
2023-04-21T17:08:29.062Z,7.90
2023-04-21T17:10:56.688Z,3.20
2023-04-21T17:13:24.278Z,5.67
2023-04-21T17:15:51.837Z,8.73
2023-04-21T17:18:19.666Z,8.50
2023-04-21T17:20:47.292Z,8.77
2023-04-21T17:23:14.817Z,4.10
2023-04-21T17:25:42.467Z,3.60
2023-04-21T17:28:10.084Z,7.50
2023-04-21T17:30:38.002Z,3.97
2023-04-21T17:33:16.283Z,4.00
2023-04-21T17:35:59.781Z,3.07
2023-04-21T17:38:29.741Z,2.50
2023-04-21T17:40:57.279Z,2.60
2023-04-21T17:43:24.880Z,2.53
2023-04-21T17:45:52.546Z,2.87
2023-04-21T17:48:20.748Z,3.87
2023-04-21T17:50:48.332Z,9.07
2023-04-21T17:53:15.926Z,6.87
2023-04-21T17:55:43.582Z,3.47
2023-04-21T17:58:12.517Z,5.07
2023-04-21T18:00:40.281Z,2.87
2023-04-21T18:03:08.074Z,5.83
2023-04-21T18:05:35.999Z,2.00
2023-04-21T18:08:03.831Z,2.13
2023-04-21T18:10:31.363Z,3.23
2023-04-21T18:12:59.009Z,5.30
2023-04-21T18:15:26.527Z,3.97
2023-04-21T18:17:54.250Z,2.57
2023-04-21T18:20:21.887Z,5.13
2023-04-21T18:22:51.694Z,3.20
2023-04-21T18:25:30.710Z,3.63
2023-04-21T18:28:07.170Z,2.17
2023-04-21T18:30:34.770Z,2.27
2023-04-21T18:33:02.477Z,5.70
2023-04-21T18:35:30.159Z,3.77
2023-04-21T18:37:57.751Z,3.70
2023-04-21T18:40:25.282Z,3.80
2023-04-21T18:42:53.051Z,3.30
2023-04-21T18:45:20.599Z,4.30
2023-04-21T18:47:48.186Z,3.47
2023-04-21T18:50:15.741Z,6.53
2023-04-21T18:52:43.241Z,4.70
2023-04-21T18:55:10.771Z,9.37
2023-04-21T18:57:38.378Z,5.10
2023-04-21T19:00:06.136Z,3.30
2023-04-21T19:02:34.081Z,6.60
2023-04-21T19:05:01.727Z,5.27
2023-04-21T19:07:29.288Z,5.70
2023-04-21T19:09:56.795Z,5.80
2023-04-21T19:12:24.381Z,4.40
2023-04-21T19:14:52.349Z,4.17
2023-04-21T19:17:20.303Z,5.77
2023-04-21T19:19:47.842Z,5.53
2023-04-21T19:22:15.404Z,6.57
2023-04-21T19:24:42.896Z,3.80
2023-04-21T19:27:10.426Z,3.83
2023-04-21T19:29:37.961Z,7.70
2023-04-21T19:32:05.590Z,4.20
2023-04-21T19:34:33.197Z,7.27
2023-04-21T19:37:01.082Z,2.70
2023-04-21T19:39:28.682Z,5.67
2023-04-21T19:41:56.211Z,3.47
2023-04-21T19:44:23.720Z,1.53
2023-04-21T19:46:51.291Z,4.47
2023-04-21T19:49:18.855Z,4.47
2023-04-21T19:51:46.405Z,2.97
2023-04-21T19:54:13.910Z,2.57
2023-04-21T19:56:41.479Z,2.80
2023-04-21T19:59:08.978Z,1.97
2023-04-21T20:01:36.917Z,2.20
2023-04-21T20:04:04.665Z,2.13
2023-04-21T20:06:32.910Z,1.77
2023-04-21T20:09:00.421Z,2.17
2023-04-21T20:11:29.209Z,3.87
2023-04-21T20:13:56.904Z,1.63
2023-04-21T20:16:24.760Z,2.30
2023-04-21T20:18:52.344Z,1.37
2023-04-21T20:21:19.931Z,2.50
2023-04-21T20:23:47.421Z,1.90
2023-04-21T20:26:14.975Z,1.77
2023-04-21T20:28:42.524Z,2.83
2023-04-21T20:31:10.141Z,2.97
2023-04-21T20:33:37.691Z,2.47
2023-04-21T20:36:05.391Z,2.10
2023-04-21T20:38:32.918Z,2.57
2023-04-21T20:41:00.553Z,2.10
2023-04-21T20:43:28.630Z,2.77
2023-04-21T20:45:56.206Z,3.87
2023-04-21T20:48:23.683Z,4.13
2023-04-21T20:50:51.501Z,3.53
2023-04-21T20:53:19.116Z,3.03
2023-04-21T20:55:47.085Z,4.70
2023-04-21T20:58:14.616Z,3.60
2023-04-21T21:00:42.349Z,3.40
2023-04-21T21:03:10.297Z,2.20
2023-04-21T21:05:39.174Z,2.93
2023-04-21T21:08:07.735Z,2.50
2023-04-21T21:10:35.784Z,3.43
2023-04-21T21:13:03.460Z,3.03
2023-04-21T21:15:31.280Z,3.80
2023-04-21T21:17:59.021Z,3.30
2023-04-21T21:20:26.713Z,2.93
2023-04-21T21:22:54.446Z,3.07
2023-04-21T21:25:21.966Z,3.33
2023-04-21T21:27:49.621Z,4.63
2023-04-21T21:30:17.156Z,4.63
2023-04-21T21:32:44.778Z,2.87
2023-04-21T21:35:12.258Z,3.17
2023-04-21T21:37:40.024Z,4.63
2023-04-21T21:40:08.008Z,3.23
2023-04-21T21:42:35.740Z,3.53
2023-04-21T21:45:03.218Z,5.53
2023-04-21T21:47:30.876Z,3.83
2023-04-21T21:49:58.423Z,4.20
2023-04-21T21:52:29.463Z,4.27
2023-04-21T21:54:57.062Z,4.23
2023-04-21T21:57:24.801Z,4.57
2023-04-21T21:59:52.343Z,3.87
2023-04-21T22:02:19.948Z,4.03
2023-04-21T22:04:47.657Z,5.73
2023-04-21T22:07:15.192Z,4.67
2023-04-21T22:09:42.716Z,5.87
2023-04-21T22:12:10.197Z,5.17
2023-04-21T22:14:38.538Z,6.73
2023-04-21T22:17:06.070Z,4.50
2023-04-21T22:19:33.663Z,8.43
2023-04-21T22:22:01.248Z,5.40
2023-04-21T22:24:28.818Z,5.77
2023-04-21T22:26:56.318Z,6.93
2023-04-21T22:29:23.908Z,6.13
2023-04-21T22:31:51.563Z,4.77
2023-04-21T22:34:19.264Z,5.20
2023-04-21T22:36:46.795Z,5.17
2023-04-21T22:39:14.371Z,5.10
2023-04-21T22:41:41.952Z,5.37
2023-04-21T22:44:09.688Z,5.20
2023-04-21T22:46:37.214Z,7.73
2023-04-21T22:49:04.812Z,7.03
2023-04-21T22:51:32.508Z,5.97
2023-04-21T22:54:00.831Z,6.30
2023-04-21T22:56:29.149Z,5.23
2023-04-21T22:58:56.726Z,7.07
2023-04-21T23:01:24.294Z,6.13
2023-04-21T23:03:52.017Z,7.83
2023-04-21T23:06:19.627Z,7.87
2023-04-21T23:08:47.142Z,6.57
2023-04-21T23:11:14.902Z,5.63
2023-04-21T23:13:42.437Z,7.83
2023-04-21T23:16:10.027Z,7.03
2023-04-21T23:18:37.720Z,6.33
2023-04-21T23:21:05.251Z,8.50
2023-04-21T23:23:32.832Z,6.40
2023-04-21T23:26:00.354Z,8.20
2023-04-21T23:28:27.876Z,6.43
2023-04-21T23:30:55.409Z,8.53
2023-04-21T23:33:23.127Z,9.50
2023-04-21T23:35:50.674Z,8.60
2023-04-21T23:38:18.263Z,9.03
2023-04-21T23:40:45.796Z,7.33
2023-04-21T23:43:13.353Z,8.40
2023-04-21T23:45:40.942Z,10.47
2023-04-21T23:48:08.579Z,8.53
2023-04-21T23:50:36.211Z,10.07
2023-04-21T23:53:03.803Z,8.83
2023-04-21T23:55:31.401Z,10.27
2023-04-21T23:57:58.874Z,10.17
